ADDS METAR Data INFO
IDs: Format: Raw Decoded Include TAF

Data at: 0308 UTC 16 Aug 2018

PADU 160256Z 33009KT 10SM FEW025 BKN040 BKN095 10/04 A3005 RMK AO2 SLP180 T01000039 58002
PADU 160156Z 33014KT 10SM FEW025 BKN036 BKN095 10/04 A3005 RMK AO2 SLP182 T01000039
PADU 160105Z 02007KT 10SM BKN028 BKN090 09/05 A3005 RMK AO2
PADU 160056Z 36007KT 10SM FEW026 BKN034 BKN044 10/04 A3006 RMK AO2 SLP182 T01000044
PADU 152356Z 34010KT 10SM BKN043 BKN250 10/04 A3006 RMK AO2 SLP182 60000 T01000039 10106 20089 58006
PADU 152256Z 31013KT 10SM BKN035 11/03 A3006 RMK AO2 SLP185 T01060033
PADU 152156Z 30011KT 10SM BKN029 10/03 A3007 RMK AO2 SLP187 T01000033
PADU 152056Z 36007KT 10SM SCT016 BKN022 09/06 A3008 RMK AO2 RAB29E39 SLP188 P0000 60000 T00890056 50002
PADU 151956Z 36004KT 10SM SCT014 OVC022 09/06 A3008 RMK AO2 RAB17E42 SLP189 P0000 T00940056
PADU 151856Z 00000KT 10SM FEW003 OVC030 09/06 A3007 RMK AO2 SLP186 T00940056
PADU 151756Z 00000KT 10SM OVC031 09/06 A3007 RMK AO2 SLP185 T00940056 10100 20089 58002
PADU 151656Z 25005KT 10SM BKN031 OVC038 09/06 A3007 RMK AO2 SLP188 T00940056
PADU 151556Z 00000KT 10SM BKN031 OVC038 09/05 A3007 RMK AO2 SLP188 T00890050
PADU 151456Z 29009KT 280V340 10SM SCT034 09/04 A3007 RMK AO2 SLP188 T00940044 58005
PADU 151356Z 29007KT 10SM BKN040 BKN047 10/05 A3008 RMK AO2 SLP189 T01000050
PADU 151256Z AUTO 28011KT 10SM OVC036 09/06 A3009 RMK AO2 SLP192 T00940061
PADU 151231Z AUTO 31010KT 10SM SCT024 OVC036 09/06 A3009 RMK AO2
PADU 151156Z AUTO 28003KT 10SM OVC020 09/07 A3009 RMK AO2 RAB06E33 SLP193 P0001 60001 70001 T00890067 10106 20089 53004
PADU 151056Z AUTO 27007KT 10SM OVC026 09/07 A3008 RMK AO2 SLP190 T00940067
PADU 151054Z AUTO 27006KT 10SM OVC026 09/07 A3008 RMK AO2
PADU 150956Z AUTO 30008KT 10SM SCT037 OVC045 10/05 A3008 RMK AO2 SLP188 T01000050
PADU 150856Z AUTO 28004KT 10SM OVC030 10/06 A3007 RMK AO2 SLP187 60000 T01000056 401220089 55000
PADU 150814Z AUTO 20005KT 10SM OVC030 09/07 A3007 RMK AO2
PADU 150756Z AUTO 20004KT 10SM OVC028 10/06 A3007 RMK AO2 RAE01 SLP186 P0000 T01000061
PADU 150712Z AUTO 26004KT 10SM OVC028 10/06 A3008 RMK AO2 RAE01 P0000
PADU 150656Z AUTO 26005KT 10SM -RA OVC030 09/06 A3008 RMK AO2 RAB0557 SLP189 P0000 T00940061
PADU 150556Z AUTO 17008KT 10SM OVC040 09/06 A3008 RMK AO2 RAB02E31 SLP189 P0000 60000 T00940056 10122 20094 58015
PADU 150456Z 24009KT 10SM SCT032 BKN046 OVC100 10/05 A3009 RMK AO2 RAE02 SLP194 P0000 T01000050
PADU 150356Z 22007G18KT 10SM -RA BKN032 OVC055 10/04 A3011 RMK AO2 PK WND 22027/0300 SLP200 P0000 T01000044
PADU 150256Z 23015G24KT 10SM -RA SCT025 BKN040 OVC090 10/05 A3012 RMK AO2 RAB36 SLP204 P0000 60000 T01000050 58022
PADU 150156Z 22012G20KT 10SM SCT025 BKN031 OVC100 11/06 A3014 RMK AO2 SLP210 T01110056
PADU 150056Z 24014G19KT 10SM FEW026 SCT040 BKN150 12/06 A3017 RMK AO2 PK WND 21028/0001 SLP219 T01170056
PADU 142356Z 21016G24KT 10SM FEW026 SCT040 BKN150 12/07 A3019 RMK AO2 SLP226 T01220067 10122 20100 58014
PADU 142256Z 22011G21KT 10SM BKN040 OVC150 12/07 A3020 RMK AO2 SLP232 T01170067
PADU 142156Z 21013G21KT 10SM OVC037 11/06 A3022 RMK AO2 SLP237 T01110061
PADU 142056Z 22016G23KT 10SM BKN041 OVC110 12/06 A3023 RMK AO2 SLP240 T01170061 58012
PADU 141956Z 20013KT 10SM OVC041 12/06 A3024 RMK AO2 SLP244 T01170061
PADU 141856Z 21014KT 10SM BKN037 OVC150 11/07 A3026 RMK AO2 SLP249 T01060067
PADU 141756Z 20015KT 10SM OVC037 11/07 A3026 RMK AO2 SLP252 T01060072 10111 20100 56008
PADU 141656Z 20014KT 10SM BKN041 BKN150 10/07 A3026 RMK AO2 SLP252 T01000072
PADU 141556Z 21016KT 10SM BKN039 10/07 A3027 RMK AO2 SLP255 T01000067